ADDS METAR Data INFO
IDs: Format: Raw Decoded Include TAF

Data at: 0734 UTC 18 Oct 2017

KPHT 180715Z AUTO 00000KT 10SM CLR 08/07 A3023 RMK A01
KPHT 180655Z AUTO 13004KT 10SM CLR 08/07 A3023 RMK A01
KPHT 180635Z AUTO 11004KT 10SM CLR 09/07 A3023 RMK A01
KPHT 180615Z AUTO 13005KT 10SM CLR 09/07 A3023 RMK A01
KPHT 180555Z AUTO 12004KT 10SM CLR 08/07 A3023 RMK A01
KPHT 180535Z AUTO 00000KT 10SM CLR 07/06 A3024 RMK A01
KPHT 180515Z AUTO 00000KT 10SM CLR 07/06 A3024 RMK A01
KPHT 180455Z AUTO 00000KT 10SM CLR 07/07 A3024 RMK A01
KPHT 180435Z AUTO 00000KT 10SM CLR 07/06 A3024 RMK A01
KPHT 180415Z AUTO 00000KT 10SM CLR 07/07 A3024 RMK A01
KPHT 180355Z AUTO 00000KT 10SM CLR 08/07 A3024 RMK A01
KPHT 180335Z AUTO 00000KT 10SM CLR 08/07 A3025 RMK A01
KPHT 180315Z AUTO 00000KT 10SM CLR 08/07 A3025 RMK A01
KPHT 180255Z AUTO 00000KT 10SM CLR 08/07 A3025 RMK A01
KPHT 180235Z AUTO 00000KT 10SM CLR 09/07 A3025 RMK A01
KPHT 180215Z AUTO 00000KT 10SM CLR 08/07 A3025 RMK A01
KPHT 180155Z AUTO 00000KT 10SM CLR 09/08 A3024 RMK A01
KPHT 180135Z AUTO 00000KT 10SM CLR 09/08 A3024 RMK A01
KPHT 180115Z AUTO 00000KT 10SM CLR 09/08 A3024 RMK A01
KPHT 180055Z AUTO 00000KT 10SM CLR 09/08 A3024 RMK A01
KPHT 180035Z AUTO 00000KT 10SM CLR 10/09 A3024 RMK A01
KPHT 180015Z AUTO 00000KT 10SM CLR 11/09 A3023 RMK A01
KPHT 172355Z AUTO 00000KT 10SM CLR 11/09 A3023 RMK A01
KPHT 172335Z AUTO 00000KT 10SM CLR 12/09 A3023 RMK A01
KPHT 172315Z AUTO 00000KT 10SM CLR 14/09 A3023 RMK A01
KPHT 172255Z AUTO 00000KT 10SM CLR 15/09 A3023 RMK A01
KPHT 172235Z AUTO 00000KT 10SM CLR 17/08 A3023 RMK A01
KPHT 172215Z AUTO 05005KT 10SM CLR 18/07 A3023 RMK A01
KPHT 172155Z AUTO 03005KT 10SM CLR 18/07 A3023 RMK A01
KPHT 172135Z AUTO 05004KT 10SM CLR 18/07 A3024 RMK A01
KPHT 172115Z AUTO 03004KT 10SM CLR 19/06 A3024 RMK A01
KPHT 172055Z AUTO 06004KT 10SM CLR 19/06 A3024 RMK A01
KPHT 172035Z AUTO 00000KT 10SM CLR 19/05 A3024 RMK A01
KPHT 172015Z AUTO 10003KT 10SM CLR 19/05 A3025 RMK A01
KPHT 171955Z AUTO VRB03KT 10SM CLR 19/06 A3025 RMK A01
KPHT 171935Z AUTO 00000KT 10SM CLR 18/05 A3026 RMK A01
KPHT 171915Z AUTO 00000KT 10SM CLR 19/06 A3027 RMK A01
KPHT 171855Z AUTO 00000KT 10SM CLR 18/05 A3028 RMK A01
KPHT 171835Z AUTO VRB05KT 10SM CLR 18/06 A3029 RMK A01
KPHT 171815Z AUTO 08003KT 10SM CLR 17/06 A3030 RMK A01
KPHT 171755Z AUTO 00000KT 10SM CLR 17/06 A3031 RMK A01
KPHT 171735Z AUTO 00000KT 10SM CLR 17/05 A3032 RMK A01
KPHT 171715Z AUTO 00000KT 10SM CLR 17/06 A3033 RMK A01
KPHT 171655Z AUTO VRB06KT 10SM CLR 17/06 A3034 RMK A01
KPHT 171635Z AUTO 20003KT 10SM CLR 17/05 A3035 RMK A01
KPHT 171615Z AUTO 11005KT 10SM CLR 16/06 A3036 RMK A01
KPHT 171555Z AUTO VRB05G10KT 10SM CLR 16/07 A3036 RMK A01
KPHT 171535Z AUTO 12007KT 10SM CLR 16/06 A3037 RMK A01
KPHT 171515Z AUTO 12005KT 10SM CLR 15/07 A3037 RMK A01
KPHT 171455Z AUTO 11005KT 10SM CLR 14/07 A3037 RMK A01
KPHT 171435Z AUTO 12005KT 10SM CLR 13/08 A3037 RMK A01
KPHT 171415Z AUTO 00000KT 10SM CLR 13/08 A3037 RMK A01
KPHT 171355Z AUTO 11005KT 10SM CLR 12/08 A3037 RMK A01
KPHT 171335Z AUTO 00000KT 10SM CLR 10/08 A3037 RMK A01
KPHT 171315Z AUTO 00000KT 10SM CLR 08/07 A3036 RMK A01
KPHT 171255Z AUTO 00000KT 10SM CLR 06/05 A3036 RMK A01
KPHT 171235Z AUTO 00000KT 10SM CLR 04/04 A3035 RMK A01
KPHT 171215Z AUTO 02003KT 10SM CLR 04/03 A3035 RMK A01
KPHT 171155Z AUTO 03003KT 3SM BR CLR 04/04 A3034 RMK A01
KPHT 171135Z AUTO 00000KT 8SM CLR 04/04 A3033 RMK A01
KPHT 171115Z AUTO 00000KT 10SM CLR 05/04 A3032 RMK A01
KPHT 171055Z AUTO 00000KT 10SM CLR 04/04 A3032 RMK A01
KPHT 171035Z AUTO 00000KT 10SM CLR 04/04 A3031 RMK A01
KPHT 171015Z AUTO 00000KT 10SM CLR 04/04 A3032 RMK A01
KPHT 170955Z AUTO 00000KT 10SM CLR 04/04 A3031 RMK A01
KPHT 170935Z AUTO 00000KT 10SM CLR 04/04 A3031 RMK A01
KPHT 170915Z AUTO 00000KT 10SM CLR 05/04 A3031 RMK A01
KPHT 170855Z AUTO 00000KT 10SM CLR 04/04 A3030 RMK A01
KPHT 170835Z AUTO 00000KT 10SM CLR 04/04 A3031 RMK A01
KPHT 170815Z AUTO 00000KT 10SM CLR 05/04 A3030 RMK A01
KPHT 170755Z AUTO 00000KT 10SM CLR 04/04 A3031 RMK A01
KPHT 170735Z AUTO 00000KT 10SM CLR 04/04 A3031 RMK A01
KPHT 170715Z AUTO 00000KT 10SM CLR 04/04 A3031 RMK A01
KPHT 170655Z AUTO 00000KT 10SM CLR 04/04 A3031 RMK A01
KPHT 170635Z AUTO 00000KT 10SM CLR 05/05 A3030 RMK A01
KPHT 170615Z AUTO 00000KT 10SM CLR 05/05 A3030 RMK A01
KPHT 170555Z AUTO 00000KT 10SM CLR 05/04 A3030 RMK A01
KPHT 170535Z AUTO 00000KT 10SM CLR 05/05 A3030 RMK A01
KPHT 170515Z AUTO 00000KT 10SM CLR 06/05 A3031 RMK A01
KPHT 170455Z AUTO 00000KT 10SM CLR 06/06 A3031 RMK A01
KPHT 170435Z AUTO 00000KT 10SM FEW031 06/05 A3031 RMK A01
KPHT 170415Z AUTO 00000KT 10SM FEW031 06/05 A3031 RMK A01
KPHT 170355Z AUTO 00000KT 10SM CLR 07/05 A3031 RMK A01
KPHT 170335Z AUTO 00000KT 10SM CLR 07/06 A3032 RMK A01
KPHT 170315Z AUTO 00000KT 10SM CLR 07/06 A3032 RMK A01
KPHT 170255Z AUTO 00000KT 10SM CLR 07/06 A3031 RMK A01
KPHT 170235Z AUTO 00000KT 10SM CLR 08/06 A3031 RMK A01
KPHT 170215Z AUTO 02003KT 10SM CLR 07/06 A3031 RMK A01
KPHT 170155Z AUTO 04003KT 7SM CLR 07/06 A3030 RMK A01
KPHT 170135Z AUTO 00000KT 10SM CLR 07/06 A3030 RMK A01
KPHT 170115Z AUTO 00000KT 10SM CLR 08/06 A3030 RMK A01
KPHT 170055Z AUTO 00000KT 10SM CLR 07/06 A3030 RMK A01
KPHT 170035Z AUTO 00000KT 10SM CLR 08/06 A3029 RMK A01
KPHT 170015Z AUTO 00000KT 10SM CLR 09/06 A3029 RMK A01
KPHT 162355Z AUTO 00000KT 10SM CLR 11/06 A3029 RMK A01
KPHT 162335Z AUTO 00000KT 10SM CLR 11/06 A3029 RMK A01
KPHT 162315Z AUTO 01003KT 10SM CLR 13/05 A3029 RMK A01
KPHT 162255Z AUTO 02004KT 10SM CLR 15/04 A3029 RMK A01
KPHT 162235Z AUTO 02006G11KT 10SM CLR 16/04 A3028 RMK A01
KPHT 162215Z AUTO 02009KT 10SM CLR 16/04 A3028 RMK A01
KPHT 162155Z AUTO 03010KT 10SM CLR 17/04 A3028 RMK A01
KPHT 162135Z AUTO 03010KT 10SM CLR 17/04 A3028 RMK A01
KPHT 162115Z AUTO 01009G15KT 10SM CLR 17/04 A3028 RMK A01
KPHT 162055Z AUTO 01007G13KT 10SM CLR 17/05 A3028 RMK A01
KPHT 162035Z AUTO 02010KT 10SM CLR 17/05 A3029 RMK A01
KPHT 162015Z AUTO 34009KT 10SM CLR 18/05 A3029 RMK A01
KPHT 161955Z AUTO 04009KT 10SM CLR 17/05 A3028 RMK A01
KPHT 161935Z AUTO 04007G12KT 10SM CLR 17/05 A3029 RMK A01